sensor_id;sensor_type;location;lat;lon;timestamp;temperature;humidity
40589;DHT22;26297;49.450;6.640;2023-08-06T00:00:53;18.90;99.90
40589;DHT22;26297;49.450;6.640;2023-08-06T00:03:57;18.90;99.90
40589;DHT22;26297;49.450;6.640;2023-08-06T00:07:09;18.90;99.90
40589;DHT22;26297;49.450;6.640;2023-08-06T00:10:18;18.90;99.90
40589;DHT22;26297;49.450;6.640;2023-08-06T00:13:28;18.90;99.90
40589;DHT22;26297;49.450;6.640;2023-08-06T00:16:37;18.90;99.90
40589;DHT22;26297;49.450;6.640;2023-08-06T00:19:43;18.90;99.90
40589;DHT22;26297;49.450;6.640;2023-08-06T00:22:49;19.00;99.90
40589;DHT22;26297;49.450;6.640;2023-08-06T00:26:02;18.90;99.90
40589;DHT22;26297;49.450;6.640;2023-08-06T00:29:06;19.00;99.90
40589;DHT22;26297;49.450;6.640;2023-08-06T00:32:15;19.00;99.90
40589;DHT22;26297;49.450;6.640;2023-08-06T00:35:23;19.00;99.90
40589;DHT22;26297;49.450;6.640;2023-08-06T00:38:41;18.90;99.90
40589;DHT22;26297;49.450;6.640;2023-08-06T00:41:50;18.90;99.90
40589;DHT22;26297;49.450;6.640;2023-08-06T00:45:02;18.90;99.90
40589;DHT22;26297;49.450;6.640;2023-08-06T00:48:11;18.90;99.90
40589;DHT22;26297;49.450;6.640;2023-08-06T00:51:21;19.00;99.90
40589;DHT22;26297;49.450;6.640;2023-08-06T00:54:25;19.00;99.90
40589;DHT22;26297;49.450;6.640;2023-08-06T00:57:34;18.90;99.90
40589;DHT22;26297;49.450;6.640;2023-08-06T01:00:46;18.90;99.90
40589;DHT22;26297;49.450;6.640;2023-08-06T01:03:57;18.90;99.90
40589;DHT22;26297;49.450;6.640;2023-08-06T01:07:25;18.90;99.90
40589;DHT22;26297;49.450;6.640;2023-08-06T01:11:10;18.90;99.90
40589;DHT22;26297;49.450;6.640;2023-08-06T01:14:30;18.90;99.90
40589;DHT22;26297;49.450;6.640;2023-08-06T01:17:38;18.90;99.90
40589;DHT22;26297;49.450;6.640;2023-08-06T01:20:47;18.90;99.90
40589;DHT22;26297;49.450;6.640;2023-08-06T01:23:53;18.90;99.90
40589;DHT22;26297;49.450;6.640;2023-08-06T01:27:28;18.90;99.90
40589;DHT22;26297;49.450;6.640;2023-08-06T01:30:48;18.90;99.90
40589;DHT22;26297;49.450;6.640;2023-08-06T01:33:56;18.80;99.90
40589;DHT22;26297;49.450;6.640;2023-08-06T01:37:03;18.90;99.90
40589;DHT22;26297;49.450;6.640;2023-08-06T01:40:10;18.90;99.90
40589;DHT22;26297;49.450;6.640;2023-08-06T01:43:25;18.90;99.90
40589;DHT22;26297;49.450;6.640;2023-08-06T01:46:35;18.90;99.90
40589;DHT22;26297;49.450;6.640;2023-08-06T01:49:41;18.90;99.90
40589;DHT22;26297;49.450;6.640;2023-08-06T01:52:48;18.80;99.90
40589;DHT22;26297;49.450;6.640;2023-08-06T01:56:00;18.90;99.90
40589;DHT22;26297;49.450;6.640;2023-08-06T01:59:07;18.90;99.90
40589;DHT22;26297;49.450;6.640;2023-08-06T02:02:13;18.90;99.90
40589;DHT22;26297;49.450;6.640;2023-08-06T02:05:25;18.90;99.90
40589;DHT22;26297;49.450;6.640;2023-08-06T02:08:37;18.90;99.90
40589;DHT22;26297;49.450;6.640;2023-08-06T02:11:45;18.90;99.90
40589;DHT22;26297;49.450;6.640;2023-08-06T02:14:49;18.90;99.90
40589;DHT22;26297;49.450;6.640;2023-08-06T02:17:55;18.80;99.90
40589;DHT22;26297;49.450;6.640;2023-08-06T02:21:01;18.80;99.90
40589;DHT22;26297;49.450;6.640;2023-08-06T02:24:05;18.80;99.90
40589;DHT22;26297;49.450;6.640;2023-08-06T02:27:09;18.80;99.90
40589;DHT22;26297;49.450;6.640;2023-08-06T02:30:12;18.80;99.90
40589;DHT22;26297;49.450;6.640;2023-08-06T02:33:16;18.90;99.90
40589;DHT22;26297;49.450;6.640;2023-08-06T02:36:23;18.90;99.90
40589;DHT22;26297;49.450;6.640;2023-08-06T02:43:03;18.90;99.90
40589;DHT22;26297;49.450;6.640;2023-08-06T02:46:21;18.80;99.90
40589;DHT22;26297;49.450;6.640;2023-08-06T02:49:26;18.80;99.90
40589;DHT22;26297;49.450;6.640;2023-08-06T02:52:35;18.80;99.90
40589;DHT22;26297;49.450;6.640;2023-08-06T02:55:45;18.80;99.90
40589;DHT22;26297;49.450;6.640;2023-08-06T02:58:52;18.70;99.90
40589;DHT22;26297;49.450;6.640;2023-08-06T03:01:56;18.70;99.90
40589;DHT22;26297;49.450;6.640;2023-08-06T03:04:59;18.70;99.90
40589;DHT22;26297;49.450;6.640;2023-08-06T03:08:09;18.70;99.90
40589;DHT22;26297;49.450;6.640;2023-08-06T03:11:12;18.60;99.90
40589;DHT22;26297;49.450;6.640;2023-08-06T03:14:22;18.60;99.90
40589;DHT22;26297;49.450;6.640;2023-08-06T03:17:29;18.70;99.90
40589;DHT22;26297;49.450;6.640;2023-08-06T03:20:38;18.70;99.90
40589;DHT22;26297;49.450;6.640;2023-08-06T03:23:44;18.70;99.90
40589;DHT22;26297;49.450;6.640;2023-08-06T03:27:00;18.70;99.90
40589;DHT22;26297;49.450;6.640;2023-08-06T03:30:06;18.80;99.90
40589;DHT22;26297;49.450;6.640;2023-08-06T03:33:19;18.80;99.90
40589;DHT22;26297;49.450;6.640;2023-08-06T03:36:25;18.80;99.90
40589;DHT22;26297;49.450;6.640;2023-08-06T03:39:40;18.80;99.90
40589;DHT22;26297;49.450;6.640;2023-08-06T03:42:43;18.80;99.90
40589;DHT22;26297;49.450;6.640;2023-08-06T03:45:49;18.80;99.90
40589;DHT22;26297;49.450;6.640;2023-08-06T03:48:58;18.80;99.90
40589;DHT22;26297;49.450;6.640;2023-08-06T03:52:08;18.70;99.90
40589;DHT22;26297;49.450;6.640;2023-08-06T03:55:12;18.70;99.90
40589;DHT22;26297;49.450;6.640;2023-08-06T03:58:16;18.70;99.90
40589;DHT22;26297;49.450;6.640;2023-08-06T04:01:19;18.80;99.90
40589;DHT22;26297;49.450;6.640;2023-08-06T04:04:31;18.80;99.90
40589;DHT22;26297;49.450;6.640;2023-08-06T04:07:47;18.70;99.90
40589;DHT22;26297;49.450;6.640;2023-08-06T04:10:54;18.70;99.90
40589;DHT22;26297;49.450;6.640;2023-08-06T04:13:58;18.70;99.90
40589;DHT22;26297;49.450;6.640;2023-08-06T04:17:04;18.70;99.90
40589;DHT22;26297;49.450;6.640;2023-08-06T04:20:22;18.80;99.90
40589;DHT22;26297;49.450;6.640;2023-08-06T04:23:26;18.80;99.90
40589;DHT22;26297;49.450;6.640;2023-08-06T04:26:37;18.80;99.90
40589;DHT22;26297;49.450;6.640;2023-08-06T04:29:50;18.80;99.90
40589;DHT22;26297;49.450;6.640;2023-08-06T04:33:02;18.80;99.90
40589;DHT22;26297;49.450;6.640;2023-08-06T04:36:06;18.80;99.90
40589;DHT22;26297;49.450;6.640;2023-08-06T04:39:17;18.80;99.90
40589;DHT22;26297;49.450;6.640;2023-08-06T04:42:29;18.70;99.90
40589;DHT22;26297;49.450;6.640;2023-08-06T04:45:33;18.80;99.90
40589;DHT22;26297;49.450;6.640;2023-08-06T04:48:37;18.70;99.90
40589;DHT22;26297;49.450;6.640;2023-08-06T04:51:45;18.70;99.90
40589;DHT22;26297;49.450;6.640;2023-08-06T04:54:57;18.70;99.90
40589;DHT22;26297;49.450;6.640;2023-08-06T04:58:22;18.70;99.90
40589;DHT22;26297;49.450;6.640;2023-08-06T05:01:27;18.70;99.90
40589;DHT22;26297;49.450;6.640;2023-08-06T05:07:50;18.70;99.90
40589;DHT22;26297;49.450;6.640;2023-08-06T05:10:56;18.80;99.90
40589;DHT22;26297;49.450;6.640;2023-08-06T05:14:12;18.70;99.90
40589;DHT22;26297;49.450;6.640;2023-08-06T05:17:21;18.70;99.90
40589;DHT22;26297;49.450;6.640;2023-08-06T05:20:55;18.70;99.90
40589;DHT22;26297;49.450;6.640;2023-08-06T05:24:11;18.70;99.90
40589;DHT22;26297;49.450;6.640;2023-08-06T05:27:18;18.60;99.90
40589;DHT22;26297;49.450;6.640;2023-08-06T05:30:24;18.70;99.90
40589;DHT22;26297;49.450;6.640;2023-08-06T05:37:17;18.70;99.90
40589;DHT22;26297;49.450;6.640;2023-08-06T05:40:54;18.70;99.90
40589;DHT22;26297;49.450;6.640;2023-08-06T05:44:06;18.60;99.90
40589;DHT22;26297;49.450;6.640;2023-08-06T05:47:26;18.70;99.90
40589;DHT22;26297;49.450;6.640;2023-08-06T05:50:53;18.70;99.90
40589;DHT22;26297;49.450;6.640;2023-08-06T05:54:14;18.60;99.90
40589;DHT22;26297;49.450;6.640;2023-08-06T06:49:58;18.40;99.90
40589;DHT22;26297;49.450;6.640;2023-08-06T06:53:27;18.40;99.90
40589;DHT22;26297;49.450;6.640;2023-08-06T07:21:03;18.30;99.90
40589;DHT22;26297;49.450;6.640;2023-08-06T07:24:24;18.30;99.90
40589;DHT22;26297;49.450;6.640;2023-08-06T07:27:56;18.30;99.90
40589;DHT22;26297;49.450;6.640;2023-08-06T07:31:04;18.30;99.90
40589;DHT22;26297;49.450;6.640;2023-08-06T07:34:19;18.30;99.90
40589;DHT22;26297;49.450;6.640;2023-08-06T07:37:39;18.40;99.90
40589;DHT22;26297;49.450;6.640;2023-08-06T07:40:53;18.30;99.90
40589;DHT22;26297;49.450;6.640;2023-08-06T07:44:03;18.30;99.90
40589;DHT22;26297;49.450;6.640;2023-08-06T07:51:17;18.20;99.90
40589;DHT22;26297;49.450;6.640;2023-08-06T07:54:26;18.10;99.90
40589;DHT22;26297;49.450;6.640;2023-08-06T08:01:39;17.90;99.90
40589;DHT22;26297;49.450;6.640;2023-08-06T08:07:41;17.90;99.90
40589;DHT22;26297;49.450;6.640;2023-08-06T08:11:14;17.80;99.90
40589;DHT22;26297;49.450;6.640;2023-08-06T08:14:31;17.90;99.90
40589;DHT22;26297;49.450;6.640;2023-08-06T08:18:08;17.90;99.90
40589;DHT22;26297;49.450;6.640;2023-08-06T08:24:48;17.80;99.90
40589;DHT22;26297;49.450;6.640;2023-08-06T08:28:20;17.80;99.90
40589;DHT22;26297;49.450;6.640;2023-08-06T08:31:44;17.70;99.90
40589;DHT22;26297;49.450;6.640;2023-08-06T08:38:22;17.70;99.90
40589;DHT22;26297;49.450;6.640;2023-08-06T08:45:45;17.70;99.90
40589;DHT22;26297;49.450;6.640;2023-08-06T08:48:46;17.60;99.90
40589;DHT22;26297;49.450;6.640;2023-08-06T08:52:04;17.60;99.90
40589;DHT22;26297;49.450;6.640;2023-08-06T08:55:19;17.70;99.90
40589;DHT22;26297;49.450;6.640;2023-08-06T08:58:54;17.60;99.90
40589;DHT22;26297;49.450;6.640;2023-08-06T09:02:22;17.60;99.90
40589;DHT22;26297;49.450;6.640;2023-08-06T09:05:48;17.60;99.90
40589;DHT22;26297;49.450;6.640;2023-08-06T09:09:20;17.70;99.90
40589;DHT22;26297;49.450;6.640;2023-08-06T09:12:33;17.70;99.90
40589;DHT22;26297;49.450;6.640;2023-08-06T09:16:08;17.70;99.90
40589;DHT22;26297;49.450;6.640;2023-08-06T09:23:54;17.60;99.90
40589;DHT22;26297;49.450;6.640;2023-08-06T09:27:22;17.60;99.90
40589;DHT22;26297;49.450;6.640;2023-08-06T09:30:38;17.50;99.90
40589;DHT22;26297;49.450;6.640;2023-08-06T09:34:19;17.60;99.90
40589;DHT22;26297;49.450;6.640;2023-08-06T09:54:17;17.70;99.90
40589;DHT22;26297;49.450;6.640;2023-08-06T09:57:54;17.80;99.90
40589;DHT22;26297;49.450;6.640;2023-08-06T10:01:04;17.70;99.90
40589;DHT22;26297;49.450;6.640;2023-08-06T10:04:19;17.80;99.90
40589;DHT22;26297;49.450;6.640;2023-08-06T10:07:34;17.70;99.90
40589;DHT22;26297;49.450;6.640;2023-08-06T10:11:06;17.70;99.90
40589;DHT22;26297;49.450;6.640;2023-08-06T10:14:41;17.60;99.90
40589;DHT22;26297;49.450;6.640;2023-08-06T10:18:14;17.60;99.90
40589;DHT22;26297;49.450;6.640;2023-08-06T10:21:25;17.60;99.90
40589;DHT22;26297;49.450;6.640;2023-08-06T10:28:15;17.70;99.90
40589;DHT22;26297;49.450;6.640;2023-08-06T10:31:58;17.60;99.90
40589;DHT22;26297;49.450;6.640;2023-08-06T10:35:50;17.60;99.90
40589;DHT22;26297;49.450;6.640;2023-08-06T10:39:03;17.60;99.90
40589;DHT22;26297;49.450;6.640;2023-08-06T10:42:22;17.50;99.90
40589;DHT22;26297;49.450;6.640;2023-08-06T10:45:34;17.60;99.90
40589;DHT22;26297;49.450;6.640;2023-08-06T10:48:40;17.50;99.90
40589;DHT22;26297;49.450;6.640;2023-08-06T10:51:47;17.60;99.90
40589;DHT22;26297;49.450;6.640;2023-08-06T10:55:02;17.50;99.90
40589;DHT22;26297;49.450;6.640;2023-08-06T10:58:25;17.60;99.90
40589;DHT22;26297;49.450;6.640;2023-08-06T11:01:29;17.60;99.90
40589;DHT22;26297;49.450;6.640;2023-08-06T11:10:18;17.60;99.90
40589;DHT22;26297;49.450;6.640;2023-08-06T11:13:39;17.60;99.90
40589;DHT22;26297;49.450;6.640;2023-08-06T11:16:43;17.50;99.90
40589;DHT22;26297;49.450;6.640;2023-08-06T11:19:50;17.60;99.90
40589;DHT22;26297;49.450;6.640;2023-08-06T11:22:57;17.60;99.90
40589;DHT22;26297;49.450;6.640;2023-08-06T11:31:40;17.50;99.90
40589;DHT22;26297;49.450;6.640;2023-08-06T11:34:46;17.50;99.90
40589;DHT22;26297;49.450;6.640;2023-08-06T11:38:02;17.60;99.90
40589;DHT22;26297;49.450;6.640;2023-08-06T11:41:08;17.60;99.90
40589;DHT22;26297;49.450;6.640;2023-08-06T11:44:30;17.70;99.90
40589;DHT22;26297;49.450;6.640;2023-08-06T11:47:41;17.70;99.90
40589;DHT22;26297;49.450;6.640;2023-08-06T11:50:53;17.80;99.90
40589;DHT22;26297;49.450;6.640;2023-08-06T11:54:17;17.70;99.90
40589;DHT22;26297;49.450;6.640;2023-08-06T11:57:11;17.70;99.90
40589;DHT22;26297;49.450;6.640;2023-08-06T12:00:26;17.80;99.90
40589;DHT22;26297;49.450;6.640;2023-08-06T12:03:38;17.70;99.90
40589;DHT22;26297;49.450;6.640;2023-08-06T12:10:04;17.80;99.90
40589;DHT22;26297;49.450;6.640;2023-08-06T12:13:19;17.80;99.90
40589;DHT22;26297;49.450;6.640;2023-08-06T12:16:27;17.80;99.90
40589;DHT22;26297;49.450;6.640;2023-08-06T12:19:41;17.80;99.90
40589;DHT22;26297;49.450;6.640;2023-08-06T12:22:49;17.70;99.90
40589;DHT22;26297;49.450;6.640;2023-08-06T12:29:23;17.80;99.90
40589;DHT22;26297;49.450;6.640;2023-08-06T12:32:38;17.70;99.90
40589;DHT22;26297;49.450;6.640;2023-08-06T12:35:49;17.60;99.90
40589;DHT22;26297;49.450;6.640;2023-08-06T12:39:01;17.70;99.90
40589;DHT22;26297;49.450;6.640;2023-08-06T12:42:09;17.60;99.90
40589;DHT22;26297;49.450;6.640;2023-08-06T12:45:18;17.60;99.90
40589;DHT22;26297;49.450;6.640;2023-08-06T12:48:24;17.60;99.90
40589;DHT22;26297;49.450;6.640;2023-08-06T12:51:33;17.60;99.90
40589;DHT22;26297;49.450;6.640;2023-08-06T12:54:39;17.60;99.90
40589;DHT22;26297;49.450;6.640;2023-08-06T12:57:48;17.70;99.90
40589;DHT22;26297;49.450;6.640;2023-08-06T13:00:59;17.70;99.90
40589;DHT22;26297;49.450;6.640;2023-08-06T13:04:08;17.80;99.90
40589;DHT22;26297;49.450;6.640;2023-08-06T13:07:14;17.80;99.90
40589;DHT22;26297;49.450;6.640;2023-08-06T13:10:23;17.80;99.90
40589;DHT22;26297;49.450;6.640;2023-08-06T13:13:33;17.80;99.90
40589;DHT22;26297;49.450;6.640;2023-08-06T13:17:04;17.70;99.90
40589;DHT22;26297;49.450;6.640;2023-08-06T13:20:11;17.70;99.90
40589;DHT22;26297;49.450;6.640;2023-08-06T13:23:25;17.90;99.90
40589;DHT22;26297;49.450;6.640;2023-08-06T13:26:37;17.90;99.90
40589;DHT22;26297;49.450;6.640;2023-08-06T13:29:44;17.90;99.90
40589;DHT22;26297;49.450;6.640;2023-08-06T13:32:50;17.80;99.90
40589;DHT22;26297;49.450;6.640;2023-08-06T13:36:12;17.80;99.90
40589;DHT22;26297;49.450;6.640;2023-08-06T13:39:16;17.70;99.90
40589;DHT22;26297;49.450;6.640;2023-08-06T13:42:30;17.70;99.90
40589;DHT22;26297;49.450;6.640;2023-08-06T13:45:37;17.80;99.90
40589;DHT22;26297;49.450;6.640;2023-08-06T13:48:47;17.70;99.90
40589;DHT22;26297;49.450;6.640;2023-08-06T13:52:10;17.70;99.90
40589;DHT22;26297;49.450;6.640;2023-08-06T13:55:26;17.70;99.90
40589;DHT22;26297;49.450;6.640;2023-08-06T13:58:42;17.70;99.90
40589;DHT22;26297;49.450;6.640;2023-08-06T14:01:50;17.60;99.90
40589;DHT22;26297;49.450;6.640;2023-08-06T14:05:00;17.70;99.90
40589;DHT22;26297;49.450;6.640;2023-08-06T14:08:11;17.70;99.90
40589;DHT22;26297;49.450;6.640;2023-08-06T14:11:29;17.70;99.90
40589;DHT22;26297;49.450;6.640;2023-08-06T14:15:04;17.80;99.90
40589;DHT22;26297;49.450;6.640;2023-08-06T14:18:13;17.70;99.90
40589;DHT22;26297;49.450;6.640;2023-08-06T14:21:25;17.70;99.90
40589;DHT22;26297;49.450;6.640;2023-08-06T14:24:29;17.70;99.90
40589;DHT22;26297;49.450;6.640;2023-08-06T14:27:38;17.70;99.90
40589;DHT22;26297;49.450;6.640;2023-08-06T14:30:45;17.60;99.90
40589;DHT22;26297;49.450;6.640;2023-08-06T14:33:54;17.60;99.90
40589;DHT22;26297;49.450;6.640;2023-08-06T14:37:13;17.60;99.90
40589;DHT22;26297;49.450;6.640;2023-08-06T14:40:16;17.60;99.90
40589;DHT22;26297;49.450;6.640;2023-08-06T14:43:23;17.60;99.90
40589;DHT22;26297;49.450;6.640;2023-08-06T14:46:53;17.60;99.90
40589;DHT22;26297;49.450;6.640;2023-08-06T14:50:02;17.50;99.90
40589;DHT22;26297;49.450;6.640;2023-08-06T14:53:16;17.60;99.90
40589;DHT22;26297;49.450;6.640;2023-08-06T14:56:28;17.60;99.90
40589;DHT22;26297;49.450;6.640;2023-08-06T14:59:34;17.60;99.90
40589;DHT22;26297;49.450;6.640;2023-08-06T15:02:58;17.60;99.90
40589;DHT22;26297;49.450;6.640;2023-08-06T15:06:06;17.70;99.90
40589;DHT22;26297;49.450;6.640;2023-08-06T15:09:15;17.70;99.90
40589;DHT22;26297;49.450;6.640;2023-08-06T15:12:22;17.70;99.90
40589;DHT22;26297;49.450;6.640;2023-08-06T15:15:28;17.60;99.90
40589;DHT22;26297;49.450;6.640;2023-08-06T15:18:35;17.70;99.90
40589;DHT22;26297;49.450;6.640;2023-08-06T15:21:44;17.70;99.90
40589;DHT22;26297;49.450;6.640;2023-08-06T15:24:52;17.70;99.90
40589;DHT22;26297;49.450;6.640;2023-08-06T15:27:58;17.70;99.90
40589;DHT22;26297;49.450;6.640;2023-08-06T15:31:08;17.70;99.90
40589;DHT22;26297;49.450;6.640;2023-08-06T15:34:17;17.70;99.90
40589;DHT22;26297;49.450;6.640;2023-08-06T15:37:25;17.60;99.90
40589;DHT22;26297;49.450;6.640;2023-08-06T15:40:55;17.60;99.90
40589;DHT22;26297;49.450;6.640;2023-08-06T15:44:01;17.60;99.90
40589;DHT22;26297;49.450;6.640;2023-08-06T15:47:30;17.60;99.90
40589;DHT22;26297;49.450;6.640;2023-08-06T15:50:34;17.60;99.90
40589;DHT22;26297;49.450;6.640;2023-08-06T15:54:00;17.60;99.90
40589;DHT22;26297;49.450;6.640;2023-08-06T15:57:30;17.50;99.90
40589;DHT22;26297;49.450;6.640;2023-08-06T16:01:09;17.50;99.90
40589;DHT22;26297;49.450;6.640;2023-08-06T16:04:18;17.50;99.90
40589;DHT22;26297;49.450;6.640;2023-08-06T16:07:28;17.50;99.90
40589;DHT22;26297;49.450;6.640;2023-08-06T16:10:48;17.50;99.90
40589;DHT22;26297;49.450;6.640;2023-08-06T16:17:26;17.60;99.90
40589;DHT22;26297;49.450;6.640;2023-08-06T16:20:35;17.50;99.90
40589;DHT22;26297;49.450;6.640;2023-08-06T16:23:49;17.50;99.90
40589;DHT22;26297;49.450;6.640;2023-08-06T16:27:02;17.60;99.90
40589;DHT22;26297;49.450;6.640;2023-08-06T16:30:21;17.50;99.90
40589;DHT22;26297;49.450;6.640;2023-08-06T16:33:42;17.50;99.90
40589;DHT22;26297;49.450;6.640;2023-08-06T16:36:51;17.50;99.90
40589;DHT22;26297;49.450;6.640;2023-08-06T16:39:57;17.50;99.90
40589;DHT22;26297;49.450;6.640;2023-08-06T16:43:00;17.60;99.90
40589;DHT22;26297;49.450;6.640;2023-08-06T16:46:12;17.60;99.90
40589;DHT22;26297;49.450;6.640;2023-08-06T16:49:35;17.60;99.90
40589;DHT22;26297;49.450;6.640;2023-08-06T16:52:43;17.60;99.90
40589;DHT22;26297;49.450;6.640;2023-08-06T16:55:56;17.60;99.90
40589;DHT22;26297;49.450;6.640;2023-08-06T17:02:36;17.50;99.90
40589;DHT22;26297;49.450;6.640;2023-08-06T17:05:56;17.60;99.90
40589;DHT22;26297;49.450;6.640;2023-08-06T17:09:10;17.50;99.90
40589;DHT22;26297;49.450;6.640;2023-08-06T17:12:54;17.50;99.90
40589;DHT22;26297;49.450;6.640;2023-08-06T17:15:59;17.40;99.90
40589;DHT22;26297;49.450;6.640;2023-08-06T17:22:48;17.60;99.90
40589;DHT22;26297;49.450;6.640;2023-08-06T17:28:52;17.70;99.90
40589;DHT22;26297;49.450;6.640;2023-08-06T17:32:46;17.60;99.90
40589;DHT22;26297;49.450;6.640;2023-08-06T17:44:12;17.50;99.90
40589;DHT22;26297;49.450;6.640;2023-08-06T17:47:26;17.50;99.90
40589;DHT22;26297;49.450;6.640;2023-08-06T17:50:58;17.50;99.90
40589;DHT22;26297;49.450;6.640;2023-08-06T17:57:56;17.50;99.90
40589;DHT22;26297;49.450;6.640;2023-08-06T18:01:17;17.60;99.90
40589;DHT22;26297;49.450;6.640;2023-08-06T18:04:39;17.50;99.90
40589;DHT22;26297;49.450;6.640;2023-08-06T18:07:39;17.40;99.90
40589;DHT22;26297;49.450;6.640;2023-08-06T18:10:53;17.40;99.90
40589;DHT22;26297;49.450;6.640;2023-08-06T18:14:03;17.30;99.90
40589;DHT22;26297;49.450;6.640;2023-08-06T18:17:31;17.40;99.90
40589;DHT22;26297;49.450;6.640;2023-08-06T18:20:53;17.40;99.90
40589;DHT22;26297;49.450;6.640;2023-08-06T18:24:17;17.50;99.90
40589;DHT22;26297;49.450;6.640;2023-08-06T18:27:39;17.50;99.90
40589;DHT22;26297;49.450;6.640;2023-08-06T18:30:54;17.60;99.90
40589;DHT22;26297;49.450;6.640;2023-08-06T18:34:30;17.60;99.90
40589;DHT22;26297;49.450;6.640;2023-08-06T18:46:20;17.70;99.90
40589;DHT22;26297;49.450;6.640;2023-08-06T18:49:50;17.70;99.90
40589;DHT22;26297;49.450;6.640;2023-08-06T18:52:59;17.70;99.90
40589;DHT22;26297;49.450;6.640;2023-08-06T18:56:12;17.70;99.90
40589;DHT22;26297;49.450;6.640;2023-08-06T18:59:30;17.70;99.90
40589;DHT22;26297;49.450;6.640;2023-08-06T19:03:15;17.80;99.90
40589;DHT22;26297;49.450;6.640;2023-08-06T19:07:03;17.70;99.90
40589;DHT22;26297;49.450;6.640;2023-08-06T19:10:20;17.70;99.90
40589;DHT22;26297;49.450;6.640;2023-08-06T19:13:28;17.60;99.90
40589;DHT22;26297;49.450;6.640;2023-08-06T19:16:43;17.60;99.90
40589;DHT22;26297;49.450;6.640;2023-08-06T19:19:55;17.60;99.90
40589;DHT22;26297;49.450;6.640;2023-08-06T19:23:04;17.70;99.90
40589;DHT22;26297;49.450;6.640;2023-08-06T19:30:08;17.70;99.90
40589;DHT22;26297;49.450;6.640;2023-08-06T19:33:22;17.70;99.90
40589;DHT22;26297;49.450;6.640;2023-08-06T19:36:33;17.70;99.90
40589;DHT22;26297;49.450;6.640;2023-08-06T19:39:42;17.70;99.90
40589;DHT22;26297;49.450;6.640;2023-08-06T19:42:49;17.70;99.90
40589;DHT22;26297;49.450;6.640;2023-08-06T19:45:53;17.60;99.90
40589;DHT22;26297;49.450;6.640;2023-08-06T19:48:58;17.60;99.90
40589;DHT22;26297;49.450;6.640;2023-08-06T19:52:04;17.50;99.90
40589;DHT22;26297;49.450;6.640;2023-08-06T19:55:15;17.50;99.90
40589;DHT22;26297;49.450;6.640;2023-08-06T19:58:29;17.50;99.90
40589;DHT22;26297;49.450;6.640;2023-08-06T20:01:41;17.60;99.90
40589;DHT22;26297;49.450;6.640;2023-08-06T20:05:11;17.50;99.90
40589;DHT22;26297;49.450;6.640;2023-08-06T20:08:15;17.50;99.90
40589;DHT22;26297;49.450;6.640;2023-08-06T20:11:24;17.50;99.90
40589;DHT22;26297;49.450;6.640;2023-08-06T20:14:38;17.50;99.90
40589;DHT22;26297;49.450;6.640;2023-08-06T20:17:54;17.50;99.90
40589;DHT22;26297;49.450;6.640;2023-08-06T20:21:00;17.50;99.90
40589;DHT22;26297;49.450;6.640;2023-08-06T20:24:06;17.40;99.90
40589;DHT22;26297;49.450;6.640;2023-08-06T20:27:09;17.40;99.90
40589;DHT22;26297;49.450;6.640;2023-08-06T20:30:18;17.40;99.90
40589;DHT22;26297;49.450;6.640;2023-08-06T20:33:24;17.40;99.90
40589;DHT22;26297;49.450;6.640;2023-08-06T20:36:38;17.40;99.90
40589;DHT22;26297;49.450;6.640;2023-08-06T20:40:03;17.50;99.90
40589;DHT22;26297;49.450;6.640;2023-08-06T20:43:14;17.50;99.90
40589;DHT22;26297;49.450;6.640;2023-08-06T20:46:24;17.50;99.90
40589;DHT22;26297;49.450;6.640;2023-08-06T20:49:33;17.50;99.90
40589;DHT22;26297;49.450;6.640;2023-08-06T20:52:41;17.50;99.90
40589;DHT22;26297;49.450;6.640;2023-08-06T20:55:45;17.60;99.90
40589;DHT22;26297;49.450;6.640;2023-08-06T20:59:04;17.70;99.90
40589;DHT22;26297;49.450;6.640;2023-08-06T21:02:16;17.70;99.90
40589;DHT22;26297;49.450;6.640;2023-08-06T21:05:22;17.60;99.90
40589;DHT22;26297;49.450;6.640;2023-08-06T21:08:29;17.70;99.90
40589;DHT22;26297;49.450;6.640;2023-08-06T21:11:35;17.70;99.90
40589;DHT22;26297;49.450;6.640;2023-08-06T21:18:01;17.70;99.90
40589;DHT22;26297;49.450;6.640;2023-08-06T21:21:12;17.70;99.90
40589;DHT22;26297;49.450;6.640;2023-08-06T21:24:18;17.70;99.90
40589;DHT22;26297;49.450;6.640;2023-08-06T21:27:21;17.70;99.90
40589;DHT22;26297;49.450;6.640;2023-08-06T21:30:25;17.70;99.90
40589;DHT22;26297;49.450;6.640;2023-08-06T21:33:41;17.60;99.90
40589;DHT22;26297;49.450;6.640;2023-08-06T21:37:17;17.60;99.90
40589;DHT22;26297;49.450;6.640;2023-08-06T21:40:28;17.60;99.90
40589;DHT22;26297;49.450;6.640;2023-08-06T21:43:37;17.60;99.90
40589;DHT22;26297;49.450;6.640;2023-08-06T21:46:41;17.50;99.90
40589;DHT22;26297;49.450;6.640;2023-08-06T21:49:49;17.50;99.90
40589;DHT22;26297;49.450;6.640;2023-08-06T21:53:00;17.60;99.90
40589;DHT22;26297;49.450;6.640;2023-08-06T21:56:11;17.60;99.90
40589;DHT22;26297;49.450;6.640;2023-08-06T21:59:18;17.60;99.90
40589;DHT22;26297;49.450;6.640;2023-08-06T22:02:24;17.40;99.90
40589;DHT22;26297;49.450;6.640;2023-08-06T22:05:32;17.50;99.90
40589;DHT22;26297;49.450;6.640;2023-08-06T22:08:43;17.50;99.90
40589;DHT22;26297;49.450;6.640;2023-08-06T22:11:49;17.50;99.90
40589;DHT22;26297;49.450;6.640;2023-08-06T22:14:56;17.50;99.90
40589;DHT22;26297;49.450;6.640;2023-08-06T22:18:07;17.60;99.90
40589;DHT22;26297;49.450;6.640;2023-08-06T22:21:13;17.60;99.90
40589;DHT22;26297;49.450;6.640;2023-08-06T22:24:21;17.60;99.90
40589;DHT22;26297;49.450;6.640;2023-08-06T22:27:34;17.60;99.90
40589;DHT22;26297;49.450;6.640;2023-08-06T22:30:46;17.50;99.90
40589;DHT22;26297;49.450;6.640;2023-08-06T22:33:59;17.60;99.90
40589;DHT22;26297;49.450;6.640;2023-08-06T22:37:05;17.60;99.90
40589;DHT22;26297;49.450;6.640;2023-08-06T22:40:11;17.60;99.90
40589;DHT22;26297;49.450;6.640;2023-08-06T22:43:20;17.60;99.90
40589;DHT22;26297;49.450;6.640;2023-08-06T22:46:36;17.50;99.90
40589;DHT22;26297;49.450;6.640;2023-08-06T22:49:39;17.60;99.90
40589;DHT22;26297;49.450;6.640;2023-08-06T22:52:57;17.60;99.90
40589;DHT22;26297;49.450;6.640;2023-08-06T22:56:05;17.60;99.90
40589;DHT22;26297;49.450;6.640;2023-08-06T22:59:09;17.60;99.90
40589;DHT22;26297;49.450;6.640;2023-08-06T23:02:25;17.60;99.90
40589;DHT22;26297;49.450;6.640;2023-08-06T23:05:31;17.50;99.90
40589;DHT22;26297;49.450;6.640;2023-08-06T23:08:43;17.50;99.90
40589;DHT22;26297;49.450;6.640;2023-08-06T23:11:49;17.50;99.90
40589;DHT22;26297;49.450;6.640;2023-08-06T23:14:55;17.60;99.90
40589;DHT22;26297;49.450;6.640;2023-08-06T23:18:01;17.60;99.90
40589;DHT22;26297;49.450;6.640;2023-08-06T23:21:15;17.60;99.90
40589;DHT22;26297;49.450;6.640;2023-08-06T23:24:23;17.60;99.90
40589;DHT22;26297;49.450;6.640;2023-08-06T23:27:30;17.60;99.90
40589;DHT22;26297;49.450;6.640;2023-08-06T23:30:42;17.60;99.90